PROZC SBJR-SBMI
Flight info
| Callsign | PROZC |
|---|---|
| Flight time | 0h 16m |
| Altitude | 1000 |
| Route | DCT 230116S0431902W REH 225913S0430059W DCT |
| Aircraft | AS50/L-HUY/C |
Departure
| Time | 2026-05-09 00:06 |
|---|---|
| Airport | Jacarepaguá - Roberto Marinho Airport (SBJR) |
Arrival
| Time | 2026-05-09 00:22 |
|---|---|
| Airport | Maricá Airport (SBMI) |
| Time | Latitude | Longitude | Altitude | Speed | Heading |
|---|---|---|---|---|---|
| 2026-05-08 23:52 | -22.98988 | -43.37088 | 10 ft | 0 kts | 92° |
| 2026-05-09 00:01 | -22.98989 | -43.37089 | 13 ft | 2 kts | 88° |
| 2026-05-09 00:01 | -22.98997 | -43.37100 | 24 ft | 1 kts | 70° |
| 2026-05-09 00:02 | -22.98988 | -43.37108 | 244 ft | 4 kts | 37° |
| 2026-05-09 00:02 | -22.98973 | -43.37147 | 400 ft | 7 kts | 13° |
| 2026-05-09 00:02 | -22.98973 | -43.37151 | 419 ft | 3 kts | 9° |
| 2026-05-09 00:03 | -22.98974 | -43.37149 | 478 ft | 2 kts | 0° |
| 2026-05-09 00:03 | -22.98880 | -43.37130 | 940 ft | 4 kts | 30° |
| 2026-05-09 00:03 | -22.98883 | -43.37133 | 687 ft | 2 kts | 30° |
| 2026-05-09 00:03 | -22.98833 | -43.37118 | 840 ft | 19 kts | 7° |
| 2026-05-09 00:04 | -22.98324 | -43.37076 | 434 ft | 107 kts | 1° |
| 2026-05-09 00:04 | -22.97765 | -43.36728 | 404 ft | 89 kts | 115° |
| 2026-05-09 00:04 | -22.98433 | -43.36555 | 246 ft | 118 kts | 184° |
| 2026-05-09 00:04 | -22.99197 | -43.36626 | 244 ft | 104 kts | 189° |
| 2026-05-09 00:05 | -22.99828 | -43.36529 | 370 ft | 92 kts | 143° |
| 2026-05-09 00:05 | -23.00193 | -43.36044 | 500 ft | 73 kts | 109° |
| 2026-05-09 00:05 | -23.00398 | -43.35496 | 523 ft | 82 kts | 108° |
| 2026-05-09 00:05 | -23.00561 | -43.34865 | 566 ft | 93 kts | 103° |
| 2026-05-09 00:06 | -23.00792 | -43.34261 | 801 ft | 79 kts | 113° |
| 2026-05-09 00:06 | -23.00849 | -43.33770 | 957 ft | 78 kts | 88° |
| 2026-05-09 00:06 | -23.01167 | -43.33243 | 1013 ft | 81 kts | 120° |
| 2026-05-09 00:06 | -23.01549 | -43.32753 | 1057 ft | 86 kts | 127° |
| 2026-05-09 00:07 | -23.01825 | -43.32332 | 1294 ft | 61 kts | 108° |
| 2026-05-09 00:07 | -23.02115 | -43.31734 | 851 ft | 111 kts | 114° |
| 2026-05-09 00:07 | -23.02273 | -43.31033 | 931 ft | 83 kts | 91° |
| 2026-05-09 00:07 | -23.02276 | -43.30476 | 1065 ft | 66 kts | 80° |
| 2026-05-09 00:08 | -23.02235 | -43.29997 | 1204 ft | 65 kts | 75° |
| 2026-05-09 00:08 | -23.02204 | -43.29403 | 1233 ft | 75 kts | 76° |
| 2026-05-09 00:08 | -23.02071 | -43.28852 | 1372 ft | 84 kts | 66° |
| 2026-05-09 00:08 | -23.01886 | -43.28224 | 1493 ft | 86 kts | 65° |
| 2026-05-09 00:09 | -23.01678 | -43.27573 | 1319 ft | 96 kts | 67° |
| 2026-05-09 00:09 | -23.01536 | -43.26859 | 1115 ft | 107 kts | 77° |
| 2026-05-09 00:09 | -23.01489 | -43.26160 | 1215 ft | 84 kts | 82° |
| 2026-05-09 00:09 | -23.01386 | -43.25451 | 971 ft | 99 kts | 68° |
| 2026-05-09 00:10 | -23.01177 | -43.24713 | 744 ft | 110 kts | 73° |
| 2026-05-09 00:10 | -23.00961 | -43.23973 | 769 ft | 89 kts | 65° |
| 2026-05-09 00:10 | -23.00703 | -43.23564 | 1061 ft | 67 kts | 47° |
| 2026-05-09 00:10 | -23.00325 | -43.22960 | 947 ft | 102 kts | 57° |
| 2026-05-09 00:11 | -23.00042 | -43.22371 | 1408 ft | 75 kts | 58° |
| 2026-05-09 00:11 | -22.99826 | -43.21761 | 1181 ft | 111 kts | 87° |
| 2026-05-09 00:11 | -22.99960 | -43.20908 | 1107 ft | 110 kts | 95° |
| 2026-05-09 00:11 | -22.99945 | -43.20039 | 906 ft | 122 kts | 81° |
| 2026-05-09 00:12 | -22.99836 | -43.19129 | 871 ft | 116 kts | 75° |
| 2026-05-09 00:12 | -22.99746 | -43.18212 | 477 ft | 141 kts | 93° |
| 2026-05-09 00:12 | -22.99682 | -43.17251 | 649 ft | 114 kts | 80° |
| 2026-05-09 00:12 | -22.99590 | -43.16413 | 809 ft | 101 kts | 79° |
| 2026-05-09 00:13 | -22.99514 | -43.15776 | 1159 ft | 86 kts | 78° |
| 2026-05-09 00:13 | -22.99501 | -43.15033 | 1203 ft | 100 kts | 86° |
| 2026-05-09 00:13 | -22.99549 | -43.14551 | 1355 ft | 95 kts | 90° |
| 2026-05-09 00:13 | -22.99664 | -43.13811 | 1512 ft | 95 kts | 93° |
| 2026-05-09 00:14 | -22.99834 | -43.13052 | 1376 ft | 121 kts | 94° |
| 2026-05-09 00:14 | -22.99946 | -43.12027 | 1062 ft | 134 kts | 85° |
| 2026-05-09 00:14 | -23.00033 | -43.11077 | 1678 ft | 91 kts | 83° |
| 2026-05-09 00:14 | -23.00084 | -43.10554 | 1413 ft | 125 kts | 99° |
| 2026-05-09 00:15 | -23.00133 | -43.09611 | 1363 ft | 117 kts | 74° |
| 2026-05-09 00:15 | -23.00020 | -43.08743 | 431 ft | 139 kts | 78° |
| 2026-05-09 00:15 | -22.99856 | -43.07767 | 434 ft | 117 kts | 77° |
| 2026-05-09 00:15 | -22.99759 | -43.06935 | 611 ft | 111 kts | 83° |
| 2026-05-09 00:16 | -22.99822 | -43.06044 | 603 ft | 116 kts | 98° |
| 2026-05-09 00:16 | -22.99826 | -43.05339 | 1086 ft | 90 kts | 65° |
| 2026-05-09 00:16 | -22.99679 | -43.04609 | 1235 ft | 107 kts | 78° |
| 2026-05-09 00:16 | -22.99764 | -43.03798 | 1491 ft | 98 kts | 82° |
| 2026-05-09 00:17 | -22.99560 | -43.03082 | 1618 ft | 109 kts | 56° |
| 2026-05-09 00:17 | -22.99117 | -43.02424 | 1651 ft | 113 kts | 54° |
| 2026-05-09 00:17 | -22.98731 | -43.01520 | 854 ft | 148 kts | 68° |
| 2026-05-09 00:17 | -22.98452 | -43.00455 | 704 ft | 139 kts | 75° |
| 2026-05-09 00:18 | -22.98198 | -42.99464 | 603 ft | 135 kts | 69° |
| 2026-05-09 00:18 | -22.97834 | -42.98521 | 531 ft | 136 kts | 72° |
| 2026-05-09 00:18 | -22.97662 | -42.97535 | 509 ft | 135 kts | 84° |
| 2026-05-09 00:18 | -22.97599 | -42.96521 | 555 ft | 129 kts | 71° |
| 2026-05-09 00:19 | -22.97203 | -42.95647 | 601 ft | 127 kts | 63° |
| 2026-05-09 00:19 | -22.96855 | -42.94845 | 902 ft | 113 kts | 60° |
| 2026-05-09 00:19 | -22.96533 | -42.94062 | 1115 ft | 117 kts | 63° |
| 2026-05-09 00:19 | -22.96251 | -42.93258 | 1199 ft | 123 kts | 65° |
| 2026-05-09 00:20 | -22.95923 | -42.92264 | 720 ft | 139 kts | 71° |
| 2026-05-09 00:20 | -22.95611 | -42.91360 | 747 ft | 123 kts | 62° |
| 2026-05-09 00:20 | -22.95241 | -42.90575 | 745 ft | 118 kts | 65° |
| 2026-05-09 00:20 | -22.95004 | -42.89774 | 851 ft | 105 kts | 78° |
| 2026-05-09 00:21 | -22.94738 | -42.89023 | 705 ft | 117 kts | 62° |
| 2026-05-09 00:21 | -22.94323 | -42.88238 | 600 ft | 116 kts | 62° |
| 2026-05-09 00:21 | -22.93969 | -42.87447 | 271 ft | 134 kts | 63° |
| 2026-05-09 00:21 | -22.93640 | -42.86781 | 746 ft | 71 kts | 53° |
| 2026-05-09 00:22 | -22.93577 | -42.86643 | 868 ft | 4 kts | 70° |
| 2026-05-09 00:22 | -22.93532 | -42.86459 | 465 ft | 63 kts | 67° |
| 2026-05-09 00:22 | -22.93261 | -42.85901 | 362 ft | 89 kts | 62° |
| 2026-05-09 00:22 | -22.92969 | -42.85303 | 392 ft | 94 kts | 62° |
| 2026-05-09 00:23 | -22.92643 | -42.84633 | 311 ft | 102 kts | 64° |
| 2026-05-09 00:23 | -22.92361 | -42.83964 | 322 ft | 78 kts | 69° |
| 2026-05-09 00:23 | -22.92178 | -42.83607 | 189 ft | 35 kts | 69° |
| 2026-05-09 00:23 | -22.92142 | -42.83504 | 37 ft | 2 kts | 66° |
| 2026-05-09 00:24 | -22.92137 | -42.83493 | 27 ft | 4 kts | 60° |
| 2026-05-09 00:24 | -22.92127 | -42.83472 | 58 ft | 10 kts | 60° |
| 2026-05-09 00:24 | -22.92068 | -42.83348 | 50 ft | 22 kts | 67° |
| 2026-05-09 00:24 | -22.92020 | -42.83237 | 25 ft | 9 kts | 66° |
| 2026-05-09 00:25 | -22.91988 | -42.83169 | 39 ft | 22 kts | 66° |
| 2026-05-09 00:25 | -22.91899 | -42.82973 | 43 ft | 22 kts | 68° |
| 2026-05-09 00:25 | -22.91884 | -42.82911 | 36 ft | 6 kts | 130° |
| 2026-05-09 00:25 | -22.91929 | -42.82871 | 20 ft | 9 kts | 143° |
| 2026-05-09 00:26 | -22.91978 | -42.82882 | 22 ft | 13 kts | 225° |
| 2026-05-09 00:26 | -22.92016 | -42.82929 | 23 ft | 1 kts | 118° |
| 2026-05-09 00:26 | -22.92011 | -42.82902 | 19 ft | 5 kts | 46° |
| 2026-05-09 00:26 | -22.91996 | -42.82885 | 20 ft | 2 kts | 116° |
| 2026-05-09 00:27 | -22.91999 | -42.82876 | 5 ft | 1 kts | 98° |
| 2026-05-09 00:27 | -22.92001 | -42.82874 | 5 ft | 0 kts | 332° |